sensor_id;sensor_type;location;lat;lon;timestamp;pressure;altitude;pressure_sealevel;temperature;humidity
54951;BME280;40854;45.282;4.302;2022-07-11T08:22:29;92565.06;;;22.71;42.09
54951;BME280;40854;45.282;4.302;2022-07-11T08:24:55;92562.47;;;23.60;40.72
54951;BME280;40854;45.282;4.302;2022-07-11T08:27:20;92563.81;;;24.51;37.40
54951;BME280;40854;45.282;4.302;2022-07-11T08:29:46;92556.34;;;25.13;36.23
54951;BME280;40854;45.282;4.302;2022-07-11T08:32:11;92558.53;;;26.01;34.07
54951;BME280;40854;45.282;4.302;2022-07-11T08:34:38;92557.38;;;26.58;32.46
54951;BME280;40854;45.282;4.302;2022-07-11T08:37:03;92548.19;;;27.09;31.78
54951;BME280;40854;45.282;4.302;2022-07-11T08:39:29;92559.28;;;27.82;31.00
54951;BME280;40854;45.282;4.302;2022-07-11T08:41:54;92564.59;;;28.03;31.28
54951;BME280;40854;45.282;4.302;2022-07-11T08:44:20;92558.47;;;28.75;29.90
54951;BME280;40854;45.282;4.302;2022-07-11T08:46:47;92556.63;;;29.16;29.52
54951;BME280;40854;45.282;4.302;2022-07-11T08:49:13;92554.41;;;29.74;27.82
54951;BME280;40854;45.282;4.302;2022-07-11T08:51:39;92553.81;;;30.09;27.23
54951;BME280;40854;45.282;4.302;2022-07-11T08:54:04;92554.25;;;30.26;27.21
54951;BME280;40854;45.282;4.302;2022-07-11T08:56:31;92550.31;;;30.55;26.30
54951;BME280;40854;45.282;4.302;2022-07-11T08:59:00;92549.47;;;29.92;26.67
54951;BME280;40854;45.282;4.302;2022-07-11T09:01:36;92555.56;;;30.17;26.59
54951;BME280;40854;45.282;4.302;2022-07-11T09:04:02;92554.44;;;30.65;26.95
54951;BME280;40854;45.282;4.302;2022-07-11T09:06:28;92549.63;;;29.83;26.32
54951;BME280;40854;45.282;4.302;2022-07-11T09:08:59;92544.75;;;29.45;27.40
54951;BME280;40854;45.282;4.302;2022-07-11T09:11:25;92547.22;;;28.98;28.87
54951;BME280;40854;45.282;4.302;2022-07-11T09:13:50;92535.63;;;28.12;29.40
54951;BME280;40854;45.282;4.302;2022-07-11T09:16:17;92552.66;;;27.59;30.25
54951;BME280;40854;45.282;4.302;2022-07-11T09:18:44;92548.91;;;27.18;31.95
54951;BME280;40854;45.282;4.302;2022-07-11T09:21:14;92543.22;;;26.69;33.89
54951;BME280;40854;45.282;4.302;2022-07-11T09:24:01;92547.88;;;26.22;33.94
54951;BME280;40854;45.282;4.302;2022-07-11T09:26:47;92538.06;;;25.88;33.63
54951;BME280;40854;45.282;4.302;2022-07-11T09:29:19;92547.94;;;25.67;34.23
54951;BME280;40854;45.282;4.302;2022-07-11T09:31:46;92542.13;;;25.30;34.40
54951;BME280;40854;45.282;4.302;2022-07-11T09:34:18;92547.13;;;24.71;37.08
54951;BME280;40854;45.282;4.302;2022-07-11T09:36:49;92540.84;;;24.93;37.34
54951;BME280;40854;45.282;4.302;2022-07-11T09:39:29;92538.78;;;25.33;37.52
54951;BME280;40854;45.282;4.302;2022-07-11T09:41:55;92546.78;;;25.76;35.50
54951;BME280;40854;45.282;4.302;2022-07-11T09:44:25;92547.09;;;26.80;32.84
54951;BME280;40854;45.282;4.302;2022-07-11T09:46:53;92543.69;;;27.88;32.08
54951;BME280;40854;45.282;4.302;2022-07-11T09:49:36;92525.97;;;31.25;27.59
54951;BME280;40854;45.282;4.302;2022-07-11T09:52:14;92557.22;;;37.30;19.83
54951;BME280;40854;45.282;4.302;2022-07-11T09:54:52;92554.94;;;41.37;15.47
54951;BME280;40854;45.282;4.302;2022-07-11T09:57:46;92550.00;;;42.99;13.52
54951;BME280;40854;45.282;4.302;2022-07-11T10:00:14;92542.56;;;43.29;14.10
54951;BME280;40854;45.282;4.302;2022-07-11T10:02:39;92531.94;;;42.62;13.92
54951;BME280;40854;45.282;4.302;2022-07-11T10:05:05;92535.56;;;38.59;17.85
54951;BME280;40854;45.282;4.302;2022-07-11T10:07:31;92532.47;;;35.81;20.94
54951;BME280;40854;45.282;4.302;2022-07-11T10:09:59;92536.00;;;33.83;23.17
54951;BME280;40854;45.282;4.302;2022-07-11T10:12:26;92551.94;;;32.72;24.79
54951;BME280;40854;45.282;4.302;2022-07-11T10:14:54;92536.31;;;31.58;25.98
54951;BME280;40854;45.282;4.302;2022-07-11T10:19:55;92541.69;;;30.34;28.28
54951;BME280;40854;45.282;4.302;2022-07-11T10:22:50;92533.28;;;29.64;27.67
54951;BME280;40854;45.282;4.302;2022-07-11T10:25:30;92538.81;;;29.83;28.47
54951;BME280;40854;45.282;4.302;2022-07-11T10:30:55;92533.94;;;29.33;29.66
54951;BME280;40854;45.282;4.302;2022-07-11T10:33:27;92539.09;;;29.38;29.85
54951;BME280;40854;45.282;4.302;2022-07-11T10:35:54;92535.22;;;29.23;30.13
54951;BME280;40854;45.282;4.302;2022-07-11T10:38:21;92537.16;;;29.11;30.96
54951;BME280;40854;45.282;4.302;2022-07-11T10:40:52;92541.31;;;29.20;30.36
54951;BME280;40854;45.282;4.302;2022-07-11T10:48:27;92533.94;;;28.93;30.25
54951;BME280;40854;45.282;4.302;2022-07-11T10:53:40;92513.38;;;28.76;30.59
54951;BME280;40854;45.282;4.302;2022-07-11T11:01:35;92525.00;;;28.52;30.76
54951;BME280;40854;45.282;4.302;2022-07-11T11:07:03;92519.72;;;28.56;30.53
54951;BME280;40854;45.282;4.302;2022-07-11T11:09:39;92524.91;;;28.49;30.14
54951;BME280;40854;45.282;4.302;2022-07-11T11:12:04;92534.13;;;28.48;31.23
54951;BME280;40854;45.282;4.302;2022-07-11T11:14:30;92531.53;;;28.51;31.38
54951;BME280;40854;45.282;4.302;2022-07-11T11:17:34;92518.38;;;28.50;30.46
54951;BME280;40854;45.282;4.302;2022-07-11T11:20:01;92525.47;;;28.42;30.91
54951;BME280;40854;45.282;4.302;2022-07-11T11:22:27;92531.53;;;28.51;30.52
54951;BME280;40854;45.282;4.302;2022-07-11T11:24:56;92522.19;;;28.49;30.64
54951;BME280;40854;45.282;4.302;2022-07-11T11:27:24;92525.22;;;28.47;30.56
54951;BME280;40854;45.282;4.302;2022-07-11T11:29:54;92519.84;;;28.47;30.54
54951;BME280;40854;45.282;4.302;2022-07-11T11:32:22;92520.06;;;28.42;30.85
54951;BME280;40854;45.282;4.302;2022-07-11T11:34:48;92526.34;;;28.34;32.09
54951;BME280;40854;45.282;4.302;2022-07-11T11:37:17;92531.41;;;28.35;30.09
54951;BME280;40854;45.282;4.302;2022-07-11T11:39:44;92515.34;;;28.51;30.18
54951;BME280;40854;45.282;4.302;2022-07-11T11:42:13;92519.94;;;28.51;31.15
54951;BME280;40854;45.282;4.302;2022-07-11T11:45:03;92525.34;;;28.51;30.71
54951;BME280;40854;45.282;4.302;2022-07-11T11:47:30;92524.44;;;28.34;30.54
54951;BME280;40854;45.282;4.302;2022-07-11T11:49:56;92522.66;;;28.51;30.44
54951;BME280;40854;45.282;4.302;2022-07-11T11:52:21;92518.38;;;28.25;30.72
54951;BME280;40854;45.282;4.302;2022-07-11T11:54:54;92526.47;;;28.25;30.85
54951;BME280;40854;45.282;4.302;2022-07-11T11:57:22;92524.97;;;28.16;31.67
54951;BME280;40854;45.282;4.302;2022-07-11T11:59:49;92522.28;;;28.16;30.98
54951;BME280;40854;45.282;4.302;2022-07-11T12:02:24;92525.88;;;28.20;31.19
54951;BME280;40854;45.282;4.302;2022-07-11T12:04:50;92522.63;;;28.14;31.64
54951;BME280;40854;45.282;4.302;2022-07-11T12:07:24;92525.75;;;28.16;32.42
54951;BME280;40854;45.282;4.302;2022-07-11T12:09:52;92520.19;;;28.33;31.65
54951;BME280;40854;45.282;4.302;2022-07-11T12:12:24;92526.47;;;28.37;31.56
54951;BME280;40854;45.282;4.302;2022-07-11T12:17:49;92512.44;;;28.32;31.63
54951;BME280;40854;45.282;4.302;2022-07-11T12:20:32;92508.38;;;28.50;30.99
54951;BME280;40854;45.282;4.302;2022-07-11T12:22:58;92497.25;;;28.52;31.77
54951;BME280;40854;45.282;4.302;2022-07-11T12:25:24;92507.53;;;28.62;31.05
54951;BME280;40854;45.282;4.302;2022-07-11T12:27:55;92514.97;;;28.65;31.39
54951;BME280;40854;45.282;4.302;2022-07-11T12:30:23;92494.44;;;28.48;31.74
54951;BME280;40854;45.282;4.302;2022-07-11T12:35:32;92510.59;;;28.60;31.10
54951;BME280;40854;45.282;4.302;2022-07-11T12:37:58;92506.88;;;28.65;32.22
54951;BME280;40854;45.282;4.302;2022-07-11T12:40:24;92511.59;;;28.68;31.81
54951;BME280;40854;45.282;4.302;2022-07-11T12:42:49;92510.00;;;28.67;31.17
54951;BME280;40854;45.282;4.302;2022-07-11T12:45:15;92510.66;;;28.76;30.86
54951;BME280;40854;45.282;4.302;2022-07-11T12:47:49;92503.25;;;28.85;31.53
54951;BME280;40854;45.282;4.302;2022-07-11T12:50:23;92492.22;;;28.78;32.19
54951;BME280;40854;45.282;4.302;2022-07-11T12:52:53;92509.56;;;28.89;31.39
54951;BME280;40854;45.282;4.302;2022-07-11T12:55:28;92513.38;;;28.88;31.75
54951;BME280;40854;45.282;4.302;2022-07-11T12:58:11;92515.84;;;28.93;32.29
54951;BME280;40854;45.282;4.302;2022-07-11T13:00:56;92515.06;;;28.81;31.16
54951;BME280;40854;45.282;4.302;2022-07-11T13:03:29;92506.84;;;28.89;31.73
54951;BME280;40854;45.282;4.302;2022-07-11T13:05:57;92507.75;;;28.93;31.44
54951;BME280;40854;45.282;4.302;2022-07-11T13:08:36;92500.91;;;28.84;31.72
54951;BME280;40854;45.282;4.302;2022-07-11T13:11:18;92507.84;;;28.97;31.83
54951;BME280;40854;45.282;4.302;2022-07-11T13:13:46;92502.72;;;29.20;32.17
54951;BME280;40854;45.282;4.302;2022-07-11T13:16:16;92496.72;;;28.98;31.69
54951;BME280;40854;45.282;4.302;2022-07-11T13:18:42;92483.88;;;28.95;31.18
54951;BME280;40854;45.282;4.302;2022-07-11T13:21:07;92474.56;;;28.81;30.81
54951;BME280;40854;45.282;4.302;2022-07-11T13:23:35;92501.97;;;29.07;31.62
54951;BME280;40854;45.282;4.302;2022-07-11T13:26:00;92515.22;;;29.12;31.47
54951;BME280;40854;45.282;4.302;2022-07-11T13:28:26;92513.47;;;28.92;31.85
54951;BME280;40854;45.282;4.302;2022-07-11T13:30:52;92497.72;;;28.94;30.66
54951;BME280;40854;45.282;4.302;2022-07-11T13:33:19;92503.09;;;29.06;31.65
54951;BME280;40854;45.282;4.302;2022-07-11T13:35:45;92509.03;;;29.12;31.40
54951;BME280;40854;45.282;4.302;2022-07-11T13:38:11;92520.50;;;29.21;31.70
54951;BME280;40854;45.282;4.302;2022-07-11T13:40:36;92506.09;;;29.17;31.10
54951;BME280;40854;45.282;4.302;2022-07-11T13:43:02;92512.47;;;29.24;31.35
54951;BME280;40854;45.282;4.302;2022-07-11T13:45:29;92494.16;;;29.18;31.25
54951;BME280;40854;45.282;4.302;2022-07-11T13:47:55;92510.22;;;29.26;30.55
54951;BME280;40854;45.282;4.302;2022-07-11T13:50:21;92508.50;;;29.34;31.77
54951;BME280;40854;45.282;4.302;2022-07-11T13:52:47;92517.38;;;29.47;31.54
54951;BME280;40854;45.282;4.302;2022-07-11T13:55:23;92525.50;;;29.34;30.57
54951;BME280;40854;45.282;4.302;2022-07-11T13:57:51;92488.66;;;29.14;31.77
54951;BME280;40854;45.282;4.302;2022-07-11T14:00:19;92518.97;;;29.35;31.51
54951;BME280;40854;45.282;4.302;2022-07-11T14:02:45;92516.03;;;29.40;31.49
54951;BME280;40854;45.282;4.302;2022-07-11T14:05:11;92498.41;;;29.31;31.60
54951;BME280;40854;45.282;4.302;2022-07-11T14:07:37;92517.38;;;29.47;32.12
54951;BME280;40854;45.282;4.302;2022-07-11T14:10:04;92493.09;;;29.34;31.59
54951;BME280;40854;45.282;4.302;2022-07-11T14:12:30;92498.81;;;29.45;31.95
54951;BME280;40854;45.282;4.302;2022-07-11T14:14:56;92513.94;;;29.62;31.71
54951;BME280;40854;45.282;4.302;2022-07-11T14:17:23;92500.75;;;29.60;31.12
54951;BME280;40854;45.282;4.302;2022-07-11T14:19:51;92516.81;;;29.69;31.11
54951;BME280;40854;45.282;4.302;2022-07-11T14:22:17;92499.88;;;29.56;31.43
54951;BME280;40854;45.282;4.302;2022-07-11T14:24:43;92493.00;;;29.59;30.80
54951;BME280;40854;45.282;4.302;2022-07-11T14:27:09;92486.13;;;29.61;30.89
54951;BME280;40854;45.282;4.302;2022-07-11T14:29:35;92500.19;;;29.83;31.10
54951;BME280;40854;45.282;4.302;2022-07-11T14:32:01;92510.22;;;29.82;30.91
54951;BME280;40854;45.282;4.302;2022-07-11T14:34:28;92486.16;;;29.77;31.16
54951;BME280;40854;45.282;4.302;2022-07-11T14:36:55;92498.09;;;29.76;31.07
54951;BME280;40854;45.282;4.302;2022-07-11T14:39:20;92507.88;;;29.81;31.98
54951;BME280;40854;45.282;4.302;2022-07-11T14:41:47;92504.63;;;29.75;30.88
54951;BME280;40854;45.282;4.302;2022-07-11T14:44:12;92502.09;;;29.66;31.30
54951;BME280;40854;45.282;4.302;2022-07-11T14:46:38;92501.03;;;29.71;30.88
54951;BME280;40854;45.282;4.302;2022-07-11T14:49:03;92500.00;;;29.76;30.00
54951;BME280;40854;45.282;4.302;2022-07-11T14:51:34;92485.94;;;29.54;31.88
54951;BME280;40854;45.282;4.302;2022-07-11T14:54:00;92493.94;;;29.51;32.29
54951;BME280;40854;45.282;4.302;2022-07-11T14:56:25;92503.22;;;29.65;32.60
54951;BME280;40854;45.282;4.302;2022-07-11T14:58:51;92477.66;;;29.35;32.67
54951;BME280;40854;45.282;4.302;2022-07-11T15:01:16;92493.41;;;29.45;31.89
54951;BME280;40854;45.282;4.302;2022-07-11T15:03:42;92507.13;;;29.40;31.92
54951;BME280;40854;45.282;4.302;2022-07-11T15:06:12;92509.47;;;29.54;31.88
54951;BME280;40854;45.282;4.302;2022-07-11T15:08:39;92510.50;;;29.49;31.81
54951;BME280;40854;45.282;4.302;2022-07-11T15:11:24;92512.47;;;29.24;32.05
54951;BME280;40854;45.282;4.302;2022-07-11T15:14:10;92515.81;;;29.46;31.52
54951;BME280;40854;45.282;4.302;2022-07-11T15:16:36;92514.97;;;29.57;31.98
54951;BME280;40854;45.282;4.302;2022-07-11T15:19:06;92509.91;;;29.56;31.86
54951;BME280;40854;45.282;4.302;2022-07-11T15:21:32;92514.97;;;29.57;31.83
54951;BME280;40854;45.282;4.302;2022-07-11T15:23:58;92522.09;;;29.50;31.95
54951;BME280;40854;45.282;4.302;2022-07-11T15:26:25;92518.16;;;29.47;32.19
54951;BME280;40854;45.282;4.302;2022-07-11T15:28:51;92523.16;;;29.33;33.60
54951;BME280;40854;45.282;4.302;2022-07-11T15:31:18;92525.69;;;29.41;32.91
54951;BME280;40854;45.282;4.302;2022-07-11T15:33:44;92525.47;;;29.47;33.10
54951;BME280;40854;45.282;4.302;2022-07-11T15:36:11;92523.25;;;29.36;32.71
54951;BME280;40854;45.282;4.302;2022-07-11T15:38:37;92505.28;;;29.28;33.34
54951;BME280;40854;45.282;4.302;2022-07-11T15:41:03;92523.50;;;29.31;33.08
54951;BME280;40854;45.282;4.302;2022-07-11T15:43:30;92517.94;;;29.40;32.87
54951;BME280;40854;45.282;4.302;2022-07-11T15:45:57;92509.59;;;29.17;32.67
54951;BME280;40854;45.282;4.302;2022-07-11T15:48:23;92503.88;;;29.06;33.01
54951;BME280;40854;45.282;4.302;2022-07-11T15:50:48;92503.75;;;29.15;33.61
54951;BME280;40854;45.282;4.302;2022-07-11T15:53:15;92520.19;;;29.10;33.19
54951;BME280;40854;45.282;4.302;2022-07-11T15:55:41;92502.41;;;29.09;33.13
54951;BME280;40854;45.282;4.302;2022-07-11T15:58:06;92503.09;;;29.06;33.51
54951;BME280;40854;45.282;4.302;2022-07-11T16:00:32;92507.94;;;29.00;32.55
54951;BME280;40854;45.282;4.302;2022-07-11T16:02:58;92495.13;;;28.97;33.50
54951;BME280;40854;45.282;4.302;2022-07-11T16:05:24;92502.22;;;29.02;33.22
54951;BME280;40854;45.282;4.302;2022-07-11T16:07:49;92500.75;;;29.04;32.91
54951;BME280;40854;45.282;4.302;2022-07-11T16:10:15;92496.94;;;28.93;33.76
54951;BME280;40854;45.282;4.302;2022-07-11T16:12:40;92501.69;;;28.84;34.39
54951;BME280;40854;45.282;4.302;2022-07-11T16:15:06;92488.19;;;28.72;33.88
54951;BME280;40854;45.282;4.302;2022-07-11T16:17:32;92498.19;;;28.71;34.36
54951;BME280;40854;45.282;4.302;2022-07-11T16:19:58;92491.91;;;28.67;34.40
54951;BME280;40854;45.282;4.302;2022-07-11T16:22:26;92486.97;;;28.69;33.74
54951;BME280;40854;45.282;4.302;2022-07-11T16:24:52;92480.19;;;28.75;33.89
54951;BME280;40854;45.282;4.302;2022-07-11T16:27:17;92495.94;;;28.73;32.71
54951;BME280;40854;45.282;4.302;2022-07-11T16:29:43;92492.69;;;28.68;34.09
54951;BME280;40854;45.282;4.302;2022-07-11T16:32:09;92491.78;;;28.76;34.05
54951;BME280;40854;45.282;4.302;2022-07-11T16:34:36;92501.44;;;28.77;34.55
54951;BME280;40854;45.282;4.302;2022-07-11T16:37:03;92486.63;;;28.71;34.82
54951;BME280;40854;45.282;4.302;2022-07-11T16:39:29;92497.97;;;28.76;35.17
54951;BME280;40854;45.282;4.302;2022-07-11T16:42:12;92499.09;;;28.63;34.43
54951;BME280;40854;45.282;4.302;2022-07-11T16:44:56;92501.28;;;28.58;35.49
54951;BME280;40854;45.282;4.302;2022-07-11T16:47:22;92477.25;;;28.40;35.07
54951;BME280;40854;45.282;4.302;2022-07-11T16:49:49;92477.47;;;28.35;34.00
54951;BME280;40854;45.282;4.302;2022-07-11T16:52:14;92492.75;;;28.43;34.04
54951;BME280;40854;45.282;4.302;2022-07-11T16:54:41;92483.09;;;28.30;34.41
54951;BME280;40854;45.282;4.302;2022-07-11T16:57:07;92500.63;;;28.24;34.36
54951;BME280;40854;45.282;4.302;2022-07-11T16:59:33;92491.28;;;28.09;34.60
54951;BME280;40854;45.282;4.302;2022-07-11T17:01:58;92506.88;;;28.04;35.34
54951;BME280;40854;45.282;4.302;2022-07-11T17:04:24;92487.66;;;27.81;35.94
54951;BME280;40854;45.282;4.302;2022-07-11T17:06:50;92499.91;;;27.91;35.52
54951;BME280;40854;45.282;4.302;2022-07-11T17:09:16;92494.03;;;27.76;35.68
54951;BME280;40854;45.282;4.302;2022-07-11T17:11:42;92489.81;;;27.55;35.52
54951;BME280;40854;45.282;4.302;2022-07-11T17:14:07;92505.31;;;27.58;35.84
54951;BME280;40854;45.282;4.302;2022-07-11T17:16:33;92500.13;;;27.53;36.60
54951;BME280;40854;45.282;4.302;2022-07-11T17:18:59;92495.63;;;27.44;36.35
54951;BME280;40854;45.282;4.302;2022-07-11T17:21:27;92476.16;;;27.27;36.23
54951;BME280;40854;45.282;4.302;2022-07-11T17:23:53;92510.47;;;27.30;36.34
54951;BME280;40854;45.282;4.302;2022-07-11T17:26:19;92498.13;;;27.29;36.81
